createdAt,value
2023-07-30T00:00:12.473Z,5.08
2023-07-30T00:01:03.957Z,5.21
2023-07-30T00:01:55.403Z,4.91
2023-07-30T00:02:46.870Z,5.13
2023-07-30T00:03:38.596Z,5.09
2023-07-30T00:04:30.032Z,4.81
2023-07-30T00:05:21.424Z,4.97
2023-07-30T00:06:12.812Z,4.70
2023-07-30T00:07:04.467Z,4.87
2023-07-30T00:07:55.941Z,4.78
2023-07-30T00:08:47.309Z,4.63
2023-07-30T00:09:39.866Z,4.71
2023-07-30T00:10:31.272Z,4.80
2023-07-30T00:11:22.705Z,4.76
2023-07-30T00:12:14.099Z,4.80
2023-07-30T00:13:05.488Z,5.16
2023-07-30T00:13:56.859Z,5.25
2023-07-30T00:14:48.269Z,5.26
2023-07-30T00:15:39.651Z,5.61
2023-07-30T00:16:31.247Z,5.15
2023-07-30T00:17:22.617Z,5.37
2023-07-30T00:18:14.686Z,5.01
2023-07-30T00:19:06.143Z,5.01
2023-07-30T00:19:57.521Z,5.20
2023-07-30T00:20:48.965Z,4.93
2023-07-30T00:21:40.445Z,4.91
2023-07-30T00:22:32.060Z,5.07
2023-07-30T00:23:23.425Z,5.23
2023-07-30T00:24:14.872Z,5.10
2023-07-30T00:25:06.861Z,4.77
2023-07-30T00:25:58.266Z,4.97
2023-07-30T00:26:49.716Z,4.64
2023-07-30T00:27:41.607Z,4.89
2023-07-30T00:28:34.892Z,5.06
2023-07-30T00:29:26.387Z,4.99
2023-07-30T00:30:18.910Z,5.52
2023-07-30T00:31:10.512Z,5.41
2023-07-30T00:32:01.979Z,5.13
2023-07-30T00:32:53.500Z,5.30
2023-07-30T00:33:44.873Z,5.26
2023-07-30T00:34:36.264Z,5.08
2023-07-30T00:35:28.106Z,5.10
2023-07-30T00:36:19.633Z,4.73
2023-07-30T00:37:11.084Z,5.71
2023-07-30T00:38:02.461Z,5.40
2023-07-30T00:38:54.368Z,5.28
2023-07-30T00:39:45.796Z,5.34
2023-07-30T00:40:42.135Z,5.38
2023-07-30T00:41:33.776Z,4.90
2023-07-30T00:42:25.330Z,4.74
2023-07-30T00:43:17.340Z,5.08
2023-07-30T00:44:08.743Z,5.12
2023-07-30T00:45:00.440Z,4.47
2023-07-30T00:45:51.951Z,4.81
2023-07-30T00:46:43.468Z,4.96
2023-07-30T00:47:35.081Z,4.94
2023-07-30T00:48:26.585Z,5.58
2023-07-30T00:49:18.242Z,5.60
2023-07-30T00:50:15.676Z,5.80
2023-07-30T00:51:10.114Z,5.64
2023-07-30T00:52:02.143Z,6.42
2023-07-30T00:52:53.705Z,5.67
2023-07-30T00:53:45.252Z,5.70
2023-07-30T00:54:37.446Z,5.30
2023-07-30T00:55:29.101Z,5.60
2023-07-30T00:56:20.838Z,5.16
2023-07-30T00:57:12.884Z,5.39
2023-07-30T00:58:05.249Z,5.48
2023-07-30T00:58:57.418Z,5.21
2023-07-30T00:59:50.262Z,5.40
2023-07-30T01:00:42.407Z,5.23
2023-07-30T01:01:37.108Z,4.81
2023-07-30T01:02:28.920Z,4.95
2023-07-30T01:03:20.678Z,4.92
2023-07-30T01:04:12.619Z,5.75
2023-07-30T01:05:07.142Z,5.72
2023-07-30T01:05:58.839Z,5.18
2023-07-30T01:06:50.399Z,5.22
2023-07-30T01:07:41.806Z,5.39
2023-07-30T01:08:34.062Z,5.29
2023-07-30T01:09:25.670Z,5.21
2023-07-30T01:10:18.959Z,5.27
2023-07-30T01:11:11.438Z,5.20
2023-07-30T01:12:04.472Z,5.20
2023-07-30T01:12:56.125Z,5.84
2023-07-30T01:13:48.804Z,5.16
2023-07-30T01:14:41.118Z,5.24
2023-07-30T01:15:33.647Z,5.04
2023-07-30T01:16:25.275Z,4.89
2023-07-30T01:17:17.655Z,5.08
2023-07-30T01:18:09.044Z,5.14
2023-07-30T01:19:04.868Z,5.09
2023-07-30T01:19:56.696Z,5.53
2023-07-30T01:20:48.309Z,5.46
2023-07-30T01:21:39.943Z,5.01
2023-07-30T01:22:31.553Z,5.15
2023-07-30T01:23:22.937Z,5.07
2023-07-30T01:24:14.404Z,5.13
2023-07-30T01:25:06.464Z,4.93
2023-07-30T01:26:08.871Z,5.21
2023-07-30T01:27:05.031Z,4.79
2023-07-30T01:28:02.076Z,4.36
2023-07-30T01:29:01.304Z,4.83
2023-07-30T01:29:56.313Z,4.99
2023-07-30T01:30:50.742Z,4.88
2023-07-30T01:31:44.668Z,5.44
2023-07-30T01:32:37.853Z,5.52
2023-07-30T01:33:30.283Z,5.04
2023-07-30T01:34:25.819Z,5.14
2023-07-30T01:35:26.554Z,4.84
2023-07-30T01:36:20.814Z,4.95
2023-07-30T01:37:14.615Z,5.27
2023-07-30T01:38:08.634Z,5.13
2023-07-30T01:39:01.070Z,4.67
2023-07-30T01:39:54.004Z,4.96
2023-07-30T01:40:45.577Z,4.60
2023-07-30T01:41:37.387Z,4.43
2023-07-30T01:42:30.472Z,4.84
2023-07-30T01:43:21.868Z,5.05
2023-07-30T01:44:13.986Z,4.92
2023-07-30T01:45:06.637Z,4.69
2023-07-30T01:45:58.256Z,4.62
2023-07-30T01:46:49.721Z,4.79
2023-07-30T01:47:41.187Z,5.13
2023-07-30T01:48:32.597Z,4.77
2023-07-30T01:49:24.004Z,4.63
2023-07-30T01:50:15.465Z,4.82
2023-07-30T01:51:06.876Z,4.76
2023-07-30T01:51:58.397Z,4.61
2023-07-30T01:52:49.842Z,5.42
2023-07-30T01:53:41.426Z,5.21
2023-07-30T01:54:32.891Z,4.77
2023-07-30T01:55:24.285Z,5.00
2023-07-30T01:56:15.708Z,5.09
2023-07-30T01:57:07.694Z,4.65
2023-07-30T01:57:59.117Z,4.79
2023-07-30T01:58:50.616Z,5.15
2023-07-30T01:59:42.023Z,4.77
2023-07-30T02:00:34.291Z,5.00
2023-07-30T02:01:31.750Z,5.00
2023-07-30T02:02:23.264Z,5.04
2023-07-30T02:03:14.806Z,4.57
2023-07-30T02:04:06.358Z,4.19
2023-07-30T02:04:57.823Z,4.83
2023-07-30T02:05:49.315Z,4.69
2023-07-30T02:06:40.696Z,4.44
2023-07-30T02:07:33.771Z,4.41
2023-07-30T02:08:25.208Z,4.12
2023-07-30T02:09:16.875Z,4.19
2023-07-30T02:10:08.514Z,4.07
2023-07-30T02:11:00.868Z,4.27
2023-07-30T02:11:52.631Z,3.87
2023-07-30T02:12:44.143Z,4.05
2023-07-30T02:13:35.599Z,3.82
2023-07-30T02:14:27.279Z,3.99
2023-07-30T02:15:19.180Z,3.90
2023-07-30T02:16:10.684Z,3.79
2023-07-30T02:17:02.222Z,3.75
2023-07-30T02:17:53.697Z,3.77
2023-07-30T02:18:45.385Z,3.57
2023-07-30T02:19:36.825Z,3.36
2023-07-30T02:20:28.665Z,3.46
2023-07-30T02:21:20.376Z,3.56
2023-07-30T02:22:11.763Z,3.72
2023-07-30T02:23:03.337Z,3.83
2023-07-30T02:23:54.771Z,3.44
2023-07-30T02:24:46.270Z,3.51
2023-07-30T02:25:39.178Z,3.14
2023-07-30T02:26:30.557Z,3.17
2023-07-30T02:27:21.944Z,3.40
2023-07-30T02:28:15.466Z,3.57
2023-07-30T02:29:07.494Z,3.52
2023-07-30T02:29:58.871Z,3.46
2023-07-30T02:30:50.755Z,3.32
2023-07-30T02:31:42.375Z,3.24
2023-07-30T02:32:33.927Z,3.23
2023-07-30T02:33:25.395Z,3.10
2023-07-30T02:34:16.850Z,3.06
2023-07-30T02:35:09.541Z,3.13
2023-07-30T02:36:01.030Z,3.13
2023-07-30T02:36:52.428Z,3.51
2023-07-30T02:37:43.839Z,3.58
2023-07-30T02:38:35.264Z,3.09
2023-07-30T02:39:26.769Z,3.34
2023-07-30T02:40:18.223Z,3.07
2023-07-30T02:41:10.620Z,3.04
2023-07-30T02:42:02.019Z,3.24
2023-07-30T02:42:53.497Z,3.28
2023-07-30T02:43:45.141Z,3.40
2023-07-30T02:44:36.597Z,3.45
2023-07-30T02:45:28.083Z,3.42
2023-07-30T02:46:19.568Z,3.62
2023-07-30T02:47:11.056Z,3.39
2023-07-30T02:48:02.530Z,3.59
2023-07-30T02:48:54.230Z,3.59
2023-07-30T02:49:45.690Z,3.50
2023-07-30T02:50:37.070Z,3.21
2023-07-30T02:51:28.620Z,3.80
2023-07-30T02:52:20.028Z,3.65
2023-07-30T02:53:11.494Z,3.21
2023-07-30T02:54:05.993Z,3.46
2023-07-30T02:54:57.376Z,3.44
2023-07-30T02:55:49.177Z,3.66
2023-07-30T02:56:40.585Z,3.51
2023-07-30T02:57:32.298Z,3.34
2023-07-30T02:58:23.708Z,3.35
2023-07-30T02:59:15.218Z,3.50
2023-07-30T03:00:07.644Z,3.43
2023-07-30T03:01:06.905Z,3.55
2023-07-30T03:01:58.509Z,3.27
2023-07-30T03:02:50.063Z,3.14
2023-07-30T03:03:41.786Z,3.21
2023-07-30T03:04:33.978Z,3.45
2023-07-30T03:05:27.822Z,3.13
2023-07-30T03:06:19.290Z,3.33
2023-07-30T03:07:10.818Z,3.11
2023-07-30T03:08:02.326Z,3.36
2023-07-30T03:08:53.830Z,3.78
2023-07-30T03:09:45.285Z,3.61
2023-07-30T03:10:39.622Z,3.11
2023-07-30T03:11:31.109Z,3.37
2023-07-30T03:12:22.671Z,3.25
2023-07-30T03:13:14.043Z,3.26
2023-07-30T03:14:05.456Z,3.40
2023-07-30T03:14:56.862Z,3.18
2023-07-30T03:15:48.272Z,3.05
2023-07-30T03:16:39.780Z,3.19
2023-07-30T03:17:31.311Z,3.56
2023-07-30T03:18:22.722Z,3.67
2023-07-30T03:19:14.633Z,3.56
2023-07-30T03:20:06.771Z,3.52
2023-07-30T03:21:02.296Z,3.53
2023-07-30T03:21:53.753Z,3.35
2023-07-30T03:22:45.159Z,3.73
2023-07-30T03:23:36.678Z,3.72
2023-07-30T03:24:28.095Z,3.60
2023-07-30T03:25:19.539Z,3.73
2023-07-30T03:26:13.934Z,3.60
2023-07-30T03:27:06.177Z,3.48
2023-07-30T03:27:57.761Z,3.44
2023-07-30T03:28:49.253Z,3.50
2023-07-30T03:29:40.610Z,3.01
2023-07-30T03:30:31.993Z,3.06
2023-07-30T03:31:23.570Z,3.16
2023-07-30T03:32:15.003Z,3.29
2023-07-30T03:33:06.570Z,3.43
2023-07-30T03:33:58.331Z,3.59
2023-07-30T03:34:49.744Z,3.21
2023-07-30T03:35:41.255Z,3.48
2023-07-30T03:36:32.848Z,3.16
2023-07-30T03:37:24.242Z,3.28
2023-07-30T03:38:15.707Z,3.27
2023-07-30T03:39:07.179Z,3.46
2023-07-30T03:39:58.552Z,3.44
2023-07-30T03:40:50.020Z,3.39
2023-07-30T03:41:41.413Z,3.33
2023-07-30T03:42:32.807Z,3.06
2023-07-30T03:43:24.220Z,2.91
2023-07-30T03:44:15.950Z,3.07
2023-07-30T03:45:07.811Z,2.97
2023-07-30T03:45:59.471Z,3.12
2023-07-30T03:46:50.946Z,2.94
2023-07-30T03:47:42.370Z,3.01
2023-07-30T03:48:33.819Z,2.75
2023-07-30T03:49:25.477Z,2.80
2023-07-30T03:50:16.891Z,3.05
2023-07-30T03:51:08.765Z,3.27
2023-07-30T03:52:00.641Z,3.04
2023-07-30T03:52:52.035Z,3.18
2023-07-30T03:53:43.913Z,3.12
2023-07-30T03:54:35.393Z,3.06
2023-07-30T03:55:26.775Z,2.78
2023-07-30T03:56:18.408Z,2.80
2023-07-30T03:57:09.801Z,3.00
2023-07-30T03:58:01.168Z,2.79
2023-07-30T03:58:52.570Z,2.55
2023-07-30T03:59:44.076Z,2.40
2023-07-30T04:00:35.587Z,2.59
2023-07-30T04:01:27.304Z,2.88
2023-07-30T04:02:18.874Z,2.37
2023-07-30T04:03:10.436Z,2.67
2023-07-30T04:04:02.048Z,2.69
2023-07-30T04:04:54.432Z,2.60
2023-07-30T04:05:45.851Z,2.63
2023-07-30T04:06:37.267Z,2.34
2023-07-30T04:07:28.632Z,2.56
2023-07-30T04:08:20.310Z,2.73
2023-07-30T04:09:12.173Z,2.54
2023-07-30T04:10:03.731Z,2.54
2023-07-30T04:10:55.161Z,2.11
2023-07-30T04:11:46.639Z,2.40
2023-07-30T04:12:38.067Z,2.20
2023-07-30T04:13:29.655Z,2.54
2023-07-30T04:14:21.099Z,2.70
2023-07-30T04:15:12.620Z,2.30
2023-07-30T04:16:04.261Z,2.15
2023-07-30T04:16:55.778Z,2.54
2023-07-30T04:17:47.291Z,2.58
2023-07-30T04:18:38.689Z,2.54
2023-07-30T04:19:30.211Z,2.26
2023-07-30T04:20:21.600Z,2.54
2023-07-30T04:21:14.684Z,2.14
2023-07-30T04:22:06.166Z,2.27
2023-07-30T04:22:58.047Z,2.42
2023-07-30T04:23:49.485Z,2.73
2023-07-30T04:24:40.882Z,2.40
2023-07-30T04:25:32.491Z,2.56
2023-07-30T04:26:23.977Z,2.51
2023-07-30T04:27:15.381Z,2.80
2023-07-30T04:28:07.005Z,2.30
2023-07-30T04:28:58.707Z,2.31
2023-07-30T04:29:50.260Z,2.06
2023-07-30T04:30:42.243Z,2.23
2023-07-30T04:31:33.724Z,2.68
2023-07-30T04:32:25.376Z,2.88
2023-07-30T04:33:16.992Z,2.70
2023-07-30T04:34:08.455Z,2.60
2023-07-30T04:35:02.141Z,2.61
2023-07-30T04:35:53.757Z,2.61
2023-07-30T04:36:45.374Z,2.60
2023-07-30T04:37:37.791Z,2.71
2023-07-30T04:38:30.630Z,2.58
2023-07-30T04:39:24.040Z,2.65
2023-07-30T04:40:15.699Z,2.64
2023-07-30T04:41:07.152Z,2.59
2023-07-30T04:42:04.954Z,2.96
2023-07-30T04:42:56.582Z,2.62
2023-07-30T04:43:48.159Z,2.67
2023-07-30T04:44:40.333Z,2.40
2023-07-30T04:45:37.405Z,2.46
2023-07-30T04:46:29.054Z,2.68
2023-07-30T04:47:23.329Z,3.00
2023-07-30T04:48:14.918Z,2.72
2023-07-30T04:49:06.478Z,2.86
2023-07-30T04:49:57.922Z,2.86
2023-07-30T04:50:49.316Z,2.70
2023-07-30T04:51:40.804Z,3.09
2023-07-30T04:52:33.481Z,2.99
2023-07-30T04:53:24.918Z,2.93
2023-07-30T04:54:16.414Z,3.06
2023-07-30T04:55:08.268Z,2.90
2023-07-30T04:55:59.903Z,2.71
2023-07-30T04:56:51.612Z,2.62
2023-07-30T04:57:42.994Z,2.98
2023-07-30T04:58:34.418Z,2.98
2023-07-30T04:59:25.886Z,3.08
2023-07-30T05:00:17.815Z,2.92
2023-07-30T05:01:09.587Z,2.97
2023-07-30T05:02:01.959Z,2.80
2023-07-30T05:02:53.457Z,2.80
2023-07-30T05:03:44.931Z,2.56
2023-07-30T05:04:36.411Z,2.72
2023-07-30T05:05:27.830Z,2.67
2023-07-30T05:06:19.271Z,2.92
2023-07-30T05:07:10.722Z,2.99
2023-07-30T05:08:02.170Z,2.63
2023-07-30T05:08:53.566Z,2.73
2023-07-30T05:09:45.081Z,2.91
2023-07-30T05:10:37.228Z,2.87
2023-07-30T05:11:28.680Z,2.88
2023-07-30T05:12:20.143Z,2.84
2023-07-30T05:13:13.891Z,2.59
2023-07-30T05:14:05.385Z,2.64
2023-07-30T05:14:56.764Z,2.76
2023-07-30T05:15:48.366Z,2.70
2023-07-30T05:16:39.856Z,2.66
2023-07-30T05:17:31.337Z,2.60
2023-07-30T05:18:22.744Z,2.59
2023-07-30T05:19:14.237Z,2.59
2023-07-30T05:20:06.469Z,2.74
2023-07-30T05:20:57.848Z,2.85
2023-07-30T05:21:49.341Z,2.73
2023-07-30T05:22:40.755Z,2.95
2023-07-30T05:23:32.118Z,2.72
2023-07-30T05:24:23.543Z,3.08
2023-07-30T05:25:14.966Z,2.80
2023-07-30T05:26:06.401Z,2.67
2023-07-30T05:26:57.777Z,2.45
2023-07-30T05:27:49.154Z,2.40
2023-07-30T05:28:40.684Z,2.45
2023-07-30T05:29:32.154Z,2.77
2023-07-30T05:30:23.522Z,2.41
2023-07-30T05:31:14.969Z,2.52
2023-07-30T05:32:07.111Z,2.30
2023-07-30T05:32:58.635Z,2.44
2023-07-30T05:33:50.175Z,2.51
2023-07-30T05:34:41.570Z,2.23
2023-07-30T05:35:33.386Z,2.39
2023-07-30T05:36:24.858Z,2.54
2023-07-30T05:37:16.587Z,2.55
2023-07-30T05:38:08.083Z,2.23
2023-07-30T05:38:59.521Z,2.47
2023-07-30T05:39:50.903Z,2.58
2023-07-30T05:40:42.917Z,2.65
2023-07-30T05:41:34.321Z,2.21
2023-07-30T05:42:25.682Z,2.13
2023-07-30T05:43:17.146Z,2.41
2023-07-30T05:44:08.556Z,2.46
2023-07-30T05:44:59.967Z,2.50
2023-07-30T05:45:51.416Z,2.26
2023-07-30T05:46:42.858Z,2.21
2023-07-30T05:47:34.666Z,2.39
2023-07-30T05:48:26.080Z,2.11
2023-07-30T05:49:17.449Z,2.17
2023-07-30T05:50:09.521Z,2.25
2023-07-30T05:51:01.032Z,2.12
2023-07-30T05:51:52.535Z,2.32
2023-07-30T05:52:43.926Z,2.40
2023-07-30T05:53:35.322Z,2.52
2023-07-30T05:54:26.721Z,2.64
2023-07-30T05:55:18.214Z,2.44
2023-07-30T05:56:09.622Z,2.36
2023-07-30T05:57:01.027Z,2.48
2023-07-30T05:57:54.293Z,2.67
2023-07-30T05:58:45.892Z,2.15
2023-07-30T05:59:37.303Z,2.12
2023-07-30T06:00:28.847Z,2.03
2023-07-30T06:01:20.980Z,2.25
2023-07-30T06:02:12.581Z,2.09
2023-07-30T06:03:04.404Z,2.05
2023-07-30T06:03:55.830Z,2.07
2023-07-30T06:04:47.245Z,2.39
2023-07-30T06:05:42.038Z,2.45
2023-07-30T06:06:33.582Z,2.15
2023-07-30T06:07:24.990Z,2.14
2023-07-30T06:08:16.356Z,2.29
2023-07-30T06:09:07.828Z,2.21
2023-07-30T06:09:59.226Z,2.48
2023-07-30T06:10:50.630Z,2.20
2023-07-30T06:11:42.088Z,2.07
2023-07-30T06:12:33.868Z,2.07
2023-07-30T06:13:25.282Z,2.15
2023-07-30T06:14:16.785Z,2.28
2023-07-30T06:15:10.404Z,2.18
2023-07-30T06:16:01.884Z,2.18
2023-07-30T06:16:54.524Z,2.08
2023-07-30T06:17:46.051Z,1.91
2023-07-30T06:18:37.502Z,1.90
2023-07-30T06:19:28.952Z,1.96
2023-07-30T06:20:20.509Z,2.40
2023-07-30T06:21:12.020Z,2.60
2023-07-30T06:22:03.558Z,2.58
2023-07-30T06:22:54.933Z,1.88
2023-07-30T06:23:46.621Z,2.58
2023-07-30T06:24:38.076Z,2.46
2023-07-30T06:25:29.510Z,2.37
2023-07-30T06:26:20.892Z,2.44
2023-07-30T06:27:13.400Z,2.35
2023-07-30T06:28:06.501Z,2.06
2023-07-30T06:28:58.124Z,2.02
2023-07-30T06:29:49.554Z,2.22
2023-07-30T06:30:40.907Z,2.16
2023-07-30T06:31:32.545Z,2.24
2023-07-30T06:32:24.143Z,2.15
2023-07-30T06:33:15.513Z,1.98
2023-07-30T06:34:07.201Z,2.21
2023-07-30T06:34:58.728Z,2.22
2023-07-30T06:35:50.100Z,2.34
2023-07-30T06:36:41.612Z,2.00
2023-07-30T06:37:33.731Z,2.21
2023-07-30T06:38:25.184Z,1.94
2023-07-30T06:39:16.539Z,2.18
2023-07-30T06:40:08.872Z,2.12
2023-07-30T06:41:00.382Z,2.08
2023-07-30T06:41:51.825Z,2.13
2023-07-30T06:42:44.214Z,2.16
2023-07-30T06:43:35.638Z,2.16
2023-07-30T06:44:27.053Z,2.20
2023-07-30T06:45:18.605Z,1.92
2023-07-30T06:46:09.984Z,2.30
2023-07-30T06:47:02.063Z,2.26
2023-07-30T06:47:53.603Z,2.44
2023-07-30T06:48:45.056Z,2.29
2023-07-30T06:49:38.020Z,2.23
2023-07-30T06:50:29.413Z,2.11
2023-07-30T06:51:21.475Z,2.21
2023-07-30T06:52:13.199Z,2.12
2023-07-30T06:53:04.607Z,1.99
2023-07-30T06:53:55.999Z,1.95
2023-07-30T06:54:47.594Z,2.07
2023-07-30T06:55:38.998Z,2.15
2023-07-30T06:56:30.368Z,2.24
2023-07-30T06:57:22.002Z,2.07
2023-07-30T06:58:13.498Z,2.28
2023-07-30T06:59:04.895Z,2.21
2023-07-30T06:59:56.379Z,2.23
2023-07-30T07:00:47.984Z,1.84
2023-07-30T07:01:39.572Z,1.98
2023-07-30T07:02:31.336Z,2.01
2023-07-30T07:03:22.877Z,1.99
2023-07-30T07:04:14.844Z,1.85
2023-07-30T07:05:06.424Z,1.97
2023-07-30T07:05:57.880Z,1.87
2023-07-30T07:06:49.306Z,1.70
2023-07-30T07:07:40.877Z,1.73
2023-07-30T07:08:32.336Z,2.16
2023-07-30T07:09:23.794Z,1.92
2023-07-30T07:10:15.912Z,1.87
2023-07-30T07:11:07.893Z,1.94
2023-07-30T07:11:59.853Z,1.88
2023-07-30T07:12:51.286Z,1.91
2023-07-30T07:13:42.712Z,2.10
2023-07-30T07:14:34.141Z,1.88
2023-07-30T07:15:25.569Z,2.05
2023-07-30T07:16:17.067Z,2.33
2023-07-30T07:17:08.505Z,1.84
2023-07-30T07:17:59.925Z,2.42
2023-07-30T07:18:51.392Z,2.00
2023-07-30T07:19:42.787Z,1.93
2023-07-30T07:20:34.301Z,1.95
2023-07-30T07:21:27.360Z,2.08
2023-07-30T07:22:19.350Z,2.06
2023-07-30T07:23:13.713Z,2.11
2023-07-30T07:24:05.603Z,2.47
2023-07-30T07:24:57.051Z,1.71
2023-07-30T07:25:48.445Z,1.83
2023-07-30T07:26:39.924Z,1.62
2023-07-30T07:27:31.330Z,1.77
2023-07-30T07:28:22.865Z,1.93
2023-07-30T07:29:14.311Z,1.85
2023-07-30T07:30:06.390Z,1.62
2023-07-30T07:30:57.784Z,1.56
2023-07-30T07:31:49.169Z,1.87
2023-07-30T07:32:40.702Z,1.75
2023-07-30T07:33:32.284Z,2.04
2023-07-30T07:34:23.868Z,1.95
2023-07-30T07:35:15.736Z,1.89
2023-07-30T07:36:08.714Z,1.88
2023-07-30T07:37:00.096Z,2.18
2023-07-30T07:37:51.537Z,1.96
2023-07-30T07:38:43.053Z,2.20
2023-07-30T07:39:34.647Z,1.91
2023-07-30T07:40:26.028Z,1.80
2023-07-30T07:41:18.672Z,1.84
2023-07-30T07:42:10.540Z,1.80
2023-07-30T07:43:01.903Z,1.99
2023-07-30T07:43:54.783Z,2.15
2023-07-30T07:44:47.164Z,2.14
2023-07-30T07:45:38.799Z,2.05
2023-07-30T07:46:30.288Z,2.15
2023-07-30T07:47:21.775Z,2.20
2023-07-30T07:48:13.244Z,2.14
2023-07-30T07:49:04.776Z,2.09
2023-07-30T07:49:56.204Z,2.10
2023-07-30T07:50:47.611Z,2.26
2023-07-30T07:51:39.089Z,1.78
2023-07-30T07:52:30.729Z,2.13
2023-07-30T07:53:22.176Z,2.25
2023-07-30T07:54:13.579Z,2.30
2023-07-30T07:55:05.918Z,2.30
2023-07-30T07:55:57.287Z,2.25
2023-07-30T07:56:48.679Z,2.07
2023-07-30T07:57:40.055Z,1.86
2023-07-30T07:58:32.055Z,2.31
2023-07-30T07:59:23.579Z,2.36
2023-07-30T08:00:15.039Z,2.11
2023-07-30T08:01:06.705Z,2.28
2023-07-30T08:01:58.290Z,2.19
2023-07-30T08:02:51.671Z,1.79
2023-07-30T08:03:43.389Z,2.18
2023-07-30T08:04:34.973Z,2.31
2023-07-30T08:05:27.693Z,2.48
2023-07-30T08:06:19.049Z,2.29
2023-07-30T08:07:10.426Z,2.15
2023-07-30T08:08:01.830Z,1.82
2023-07-30T08:08:53.205Z,1.94
2023-07-30T08:09:44.661Z,2.21
2023-07-30T08:10:39.697Z,2.06
2023-07-30T08:11:32.361Z,1.84
2023-07-30T08:12:23.767Z,2.02
2023-07-30T08:13:15.608Z,2.09
2023-07-30T08:14:07.028Z,1.98
2023-07-30T08:14:58.440Z,2.45
2023-07-30T08:15:49.956Z,2.21
2023-07-30T08:16:41.377Z,1.96
2023-07-30T08:17:32.825Z,2.25
2023-07-30T08:18:24.246Z,2.30
2023-07-30T08:19:15.617Z,2.45
2023-07-30T08:20:07.641Z,2.84
2023-07-30T08:21:01.681Z,2.59
2023-07-30T08:21:53.157Z,2.46
2023-07-30T08:22:44.529Z,2.35
2023-07-30T08:23:35.891Z,2.43
2023-07-30T08:24:27.264Z,2.82
2023-07-30T08:25:18.708Z,2.74
2023-07-30T08:26:10.116Z,2.75
2023-07-30T08:27:01.502Z,2.80
2023-07-30T08:27:52.967Z,2.86
2023-07-30T08:28:44.360Z,2.65
2023-07-30T08:29:38.207Z,2.70
2023-07-30T08:30:30.786Z,2.65
2023-07-30T08:31:22.303Z,2.79
2023-07-30T08:32:13.809Z,2.94
2023-07-30T08:33:05.351Z,2.82
2023-07-30T08:33:56.736Z,2.99
2023-07-30T08:34:48.175Z,2.64
2023-07-30T08:35:39.757Z,3.09
2023-07-30T08:36:31.166Z,2.76
2023-07-30T08:37:22.632Z,2.64
2023-07-30T08:38:14.318Z,2.85
2023-07-30T08:39:05.767Z,2.82
2023-07-30T08:39:57.303Z,2.87
2023-07-30T08:40:48.728Z,3.06
2023-07-30T08:41:40.489Z,2.94
2023-07-30T08:42:32.302Z,2.71
2023-07-30T08:43:23.789Z,2.93
2023-07-30T08:44:15.512Z,2.78
2023-07-30T08:45:09.057Z,3.21
2023-07-30T08:46:01.162Z,2.87
2023-07-30T08:46:55.117Z,3.10
2023-07-30T08:47:48.466Z,3.26
2023-07-30T08:48:40.657Z,3.22
2023-07-30T08:49:34.155Z,3.03
2023-07-30T08:50:27.490Z,3.12
2023-07-30T08:51:20.469Z,2.69
2023-07-30T08:52:12.732Z,2.57
2023-07-30T08:53:04.788Z,3.10
2023-07-30T08:53:58.951Z,3.34
2023-07-30T08:54:53.130Z,2.77
2023-07-30T08:55:45.902Z,3.20
2023-07-30T08:56:37.368Z,2.87
2023-07-30T08:57:30.942Z,2.81
2023-07-30T08:58:25.510Z,2.68
2023-07-30T08:59:19.364Z,3.15
2023-07-30T09:00:12.006Z,2.94
2023-07-30T09:01:12.359Z,3.09
2023-07-30T09:02:11.782Z,2.49
2023-07-30T09:03:05.698Z,2.91
2023-07-30T09:04:01.114Z,3.02
2023-07-30T09:04:57.283Z,2.73
2023-07-30T09:05:49.915Z,2.92
2023-07-30T09:06:41.402Z,2.97
2023-07-30T09:07:33.021Z,3.02
2023-07-30T09:08:25.186Z,2.78
2023-07-30T09:09:17.052Z,2.83
2023-07-30T09:10:08.829Z,2.72
2023-07-30T09:11:11.793Z,2.80
2023-07-30T09:12:03.551Z,3.36
2023-07-30T09:12:59.838Z,3.01
2023-07-30T09:13:55.905Z,2.79
2023-07-30T09:14:52.040Z,2.60
2023-07-30T09:15:43.453Z,2.50
2023-07-30T09:16:34.877Z,3.16
2023-07-30T09:17:26.970Z,2.97
2023-07-30T09:18:21.775Z,3.05
2023-07-30T09:19:18.767Z,3.41
2023-07-30T09:20:10.944Z,3.19
2023-07-30T09:21:03.167Z,3.13
2023-07-30T09:21:54.549Z,3.17
2023-07-30T09:22:49.781Z,3.52
2023-07-30T09:23:47.897Z,3.42
2023-07-30T09:24:44.521Z,3.12
2023-07-30T09:25:37.271Z,2.95
2023-07-30T09:26:28.638Z,3.06
2023-07-30T09:27:26.286Z,2.94
2023-07-30T09:28:19.585Z,2.99
2023-07-30T09:29:11.738Z,2.94
2023-07-30T09:30:07.569Z,3.04
2023-07-30T09:31:20.481Z,3.38
2023-07-30T09:32:13.394Z,2.62
2023-07-30T09:33:04.965Z,2.51
2023-07-30T09:33:56.899Z,2.91
2023-07-30T09:34:49.126Z,2.55
2023-07-30T09:35:40.565Z,2.73
2023-07-30T09:36:31.916Z,2.95
2023-07-30T09:37:23.346Z,2.76
2023-07-30T09:38:14.811Z,3.10
2023-07-30T09:39:15.513Z,3.18
2023-07-30T09:40:13.107Z,2.56
2023-07-30T09:41:05.415Z,2.92
2023-07-30T09:42:02.658Z,3.10
2023-07-30T09:42:54.198Z,3.24
2023-07-30T09:43:46.053Z,2.54
2023-07-30T09:44:39.579Z,2.87
2023-07-30T09:45:35.636Z,2.82
2023-07-30T09:46:30.711Z,2.99
2023-07-30T09:47:22.116Z,2.62
2023-07-30T09:48:15.043Z,2.44
2023-07-30T09:49:07.911Z,2.63
2023-07-30T09:49:59.286Z,2.48
2023-07-30T09:50:51.246Z,3.03
2023-07-30T09:51:43.022Z,3.18
2023-07-30T09:52:34.480Z,2.81
2023-07-30T09:53:27.630Z,2.34
2023-07-30T09:54:19.041Z,2.92
2023-07-30T09:55:11.357Z,2.82
2023-07-30T09:56:04.293Z,2.98
2023-07-30T09:56:55.830Z,2.91
2023-07-30T09:57:47.778Z,2.69
2023-07-30T09:58:39.934Z,2.51
2023-07-30T09:59:31.383Z,2.81
2023-07-30T10:00:22.956Z,2.93
2023-07-30T10:01:14.755Z,2.64
2023-07-30T10:02:09.336Z,2.30
2023-07-30T10:03:03.409Z,2.52
2023-07-30T10:03:58.605Z,2.61
2023-07-30T10:04:54.015Z,2.48
2023-07-30T10:05:48.024Z,2.50
2023-07-30T10:06:46.313Z,2.61
2023-07-30T10:07:43.444Z,2.43
2023-07-30T10:08:41.874Z,2.40
2023-07-30T10:09:44.210Z,2.40
2023-07-30T10:10:36.348Z,2.68
2023-07-30T10:11:29.749Z,2.35
2023-07-30T10:12:31.613Z,2.23
2023-07-30T10:13:24.052Z,2.43
2023-07-30T10:14:19.852Z,2.54
2023-07-30T10:15:11.363Z,2.22
2023-07-30T10:16:02.853Z,2.12
2023-07-30T10:16:57.198Z,2.60
2023-07-30T10:17:48.832Z,2.57
2023-07-30T10:18:41.998Z,2.58
2023-07-30T10:19:33.486Z,2.51
2023-07-30T10:20:28.033Z,2.42
2023-07-30T10:21:25.181Z,2.59
2023-07-30T10:22:19.205Z,2.77
2023-07-30T10:23:10.627Z,2.68
2023-07-30T10:24:05.541Z,2.32
2023-07-30T10:25:00.823Z,2.09
2023-07-30T10:25:53.801Z,2.37
2023-07-30T10:26:45.290Z,2.31
2023-07-30T10:27:40.445Z,2.13
2023-07-30T10:28:31.930Z,2.56
2023-07-30T10:29:24.295Z,2.39
2023-07-30T10:30:18.048Z,2.14
2023-07-30T10:31:10.505Z,2.48
2023-07-30T10:32:01.962Z,2.39
2023-07-30T10:32:56.381Z,2.48
2023-07-30T10:33:52.108Z,2.94
2023-07-30T10:34:48.265Z,2.30
2023-07-30T10:35:47.112Z,2.52
2023-07-30T10:36:50.447Z,2.50
2023-07-30T10:37:47.276Z,2.48
2023-07-30T10:38:40.342Z,2.39
2023-07-30T10:39:31.874Z,2.43
2023-07-30T10:40:23.393Z,2.26
2023-07-30T10:41:18.420Z,2.74
2023-07-30T10:42:09.864Z,2.61
2023-07-30T10:43:01.472Z,2.32
2023-07-30T10:43:54.789Z,2.21
2023-07-30T10:44:46.792Z,2.27
2023-07-30T10:45:38.276Z,2.70
2023-07-30T10:46:29.841Z,2.63
2023-07-30T10:47:36.054Z,2.54
2023-07-30T10:48:37.294Z,2.67
2023-07-30T10:49:28.888Z,2.40
2023-07-30T10:50:23.391Z,2.31
2023-07-30T10:51:20.058Z,2.17
2023-07-30T10:52:11.472Z,2.49
2023-07-30T10:53:02.904Z,2.43
2023-07-30T10:53:54.440Z,2.38
2023-07-30T10:54:45.819Z,2.73
2023-07-30T10:55:38.167Z,2.67
2023-07-30T10:56:29.583Z,2.60
2023-07-30T10:57:21.046Z,2.83
2023-07-30T10:58:12.690Z,2.63
2023-07-30T10:59:06.929Z,2.52
2023-07-30T11:00:00.687Z,2.33
2023-07-30T11:00:52.124Z,2.18
2023-07-30T11:01:45.657Z,1.98
2023-07-30T11:02:37.148Z,2.21
2023-07-30T11:03:29.132Z,1.92
2023-07-30T11:04:22.032Z,1.97
2023-07-30T11:05:14.746Z,1.88
2023-07-30T11:06:06.404Z,1.89
2023-07-30T11:06:57.841Z,1.75
2023-07-30T11:07:53.240Z,2.11
2023-07-30T11:08:44.695Z,2.03
2023-07-30T11:09:36.073Z,2.33
2023-07-30T11:10:27.432Z,2.01
2023-07-30T11:11:18.836Z,1.99
2023-07-30T11:12:11.571Z,2.15
2023-07-30T11:13:03.483Z,2.12
2023-07-30T11:13:55.153Z,1.85
2023-07-30T11:14:46.628Z,2.00
2023-07-30T11:15:45.047Z,2.02
2023-07-30T11:16:37.049Z,1.87
2023-07-30T11:17:28.600Z,1.57
2023-07-30T11:18:20.038Z,1.83
2023-07-30T11:19:12.990Z,1.79
2023-07-30T11:20:05.295Z,1.60
2023-07-30T11:21:10.540Z,1.73
2023-07-30T11:22:01.933Z,2.15
2023-07-30T11:22:54.280Z,1.88
2023-07-30T11:23:46.953Z,1.80
2023-07-30T11:24:38.644Z,1.33
2023-07-30T11:25:30.122Z,1.67
2023-07-30T11:26:21.557Z,1.77
2023-07-30T11:27:13.014Z,2.01
2023-07-30T11:28:04.559Z,2.03
2023-07-30T11:28:57.553Z,2.13
2023-07-30T11:29:57.278Z,2.09
2023-07-30T11:30:51.846Z,2.01
2023-07-30T11:31:44.829Z,2.05
2023-07-30T11:32:36.405Z,2.12
2023-07-30T11:33:29.411Z,2.12
2023-07-30T11:34:20.970Z,2.06
2023-07-30T11:35:16.084Z,2.02
2023-07-30T11:36:10.655Z,2.09